Time;durP1;ratioP1;P1;durP2;ratioP2;P2;SDS_P1;SDS_P2;PMS_P1;PMS_P2;Temp;Humidity;BMP_temperature;BMP_pressure;BME280_temperature;BME280_humidity;BME280_pressure;Samples;Min_cycle;Max_cycle;Signal;HPM_P1;HPM_P2
2022/11/21 00:00:38;;;;;;;23.88;14.35;;;3.10;99.90;;;;;;5069080;28;20031;-88
2022/11/21 00:03:03;;;;;;;23.67;13.70;;;3.10;99.90;;;;;;5067923;28;20035;-89
2022/11/21 00:05:31;;;;;;;22.25;14.02;;;3.10;99.90;;;;;;5075329;28;20020;-91
2022/11/21 00:07:57;;;;;;;22.70;13.65;;;3.20;99.90;;;;;;5063497;28;20028;-90
2022/11/21 00:10:24;;;;;;;23.83;15.13;;;3.10;99.90;;;;;;5087735;28;20065;-90
2022/11/21 00:12:56;;;;;;;20.08;13.18;;;3.10;99.90;;;;;;5070543;28;20055;-89
2022/11/21 00:15:24;;;;;;;21.53;13.07;;;3.10;99.90;;;;;;5074675;28;20073;-90
2022/11/21 00:17:51;;;;;;;22.73;12.93;;;3.10;99.90;;;;;;5078899;28;20024;-91
2022/11/21 00:20:17;;;;;;;19.23;12.55;;;3.20;99.90;;;;;;5080000;28;20437;-89
2022/11/21 00:22:43;;;;;;;21.20;13.25;;;3.20;99.90;;;;;;5084613;28;20020;-90
2022/11/21 00:25:09;;;;;;;21.60;13.55;;;3.20;99.90;;;;;;5079192;28;20077;-89
2022/11/21 00:27:35;;;;;;;21.40;13.07;;;3.20;99.90;;;;;;5085315;28;20027;-88
2022/11/21 00:30:01;;;;;;;22.27;14.05;;;3.10;99.90;;;;;;5084933;28;20024;-88
2022/11/21 00:32:26;;;;;;;23.20;14.20;;;3.10;99.90;;;;;;5078540;28;20016;-90
2022/11/21 00:34:52;;;;;;;23.90;14.60;;;3.20;99.90;;;;;;5079327;28;20458;-90
2022/11/21 00:37:17;;;;;;;19.50;11.98;;;3.20;99.90;;;;;;5085170;28;20103;-89
2022/11/21 00:39:43;;;;;;;22.45;12.90;;;3.20;99.90;;;;;;5078586;28;20024;-89
2022/11/21 00:42:09;;;;;;;20.95;12.82;;;3.20;99.90;;;;;;5077798;28;20028;-89
2022/11/21 00:44:34;;;;;;;21.35;13.65;;;3.20;99.90;;;;;;5067828;28;20038;-89
2022/11/21 00:47:00;;;;;;;20.63;12.73;;;3.20;99.90;;;;;;5080597;28;20120;-88
2022/11/21 00:49:25;;;;;;;22.33;13.57;;;3.10;99.90;;;;;;5078164;28;20656;-87
2022/11/21 00:51:51;;;;;;;22.52;14.35;;;3.10;99.90;;;;;;5080334;28;20016;-88
2022/11/21 00:54:16;;;;;;;20.10;13.10;;;3.10;99.90;;;;;;5076913;28;20024;-88
2022/11/21 00:56:42;;;;;;;22.20;13.20;;;3.10;99.90;;;;;;5089154;28;20016;-87
2022/11/21 00:59:08;;;;;;;20.63;13.02;;;3.20;99.90;;;;;;5076868;28;20020;-88
2022/11/21 01:01:35;;;;;;;19.83;11.98;;;3.20;99.90;;;;;;5076328;28;20393;-89
2022/11/21 01:04:00;;;;;;;22.73;14.93;;;3.20;99.90;;;;;;5075126;28;20028;-89
2022/11/21 01:06:26;;;;;;;23.58;15.43;;;3.20;99.90;;;;;;5071328;28;20091;-89
2022/11/21 01:08:52;;;;;;;24.05;14.80;;;3.20;99.90;;;;;;5078604;28;20071;-88
2022/11/21 01:11:19;;;;;;;26.85;17.02;;;3.10;99.90;;;;;;5077463;28;20507;-88
2022/11/21 01:13:47;;;;;;;25.25;15.82;;;3.10;99.90;;;;;;5077083;28;20051;-89
2022/11/21 01:16:15;;;;;;;25.65;15.55;;;3.00;99.90;;;;;;5095724;28;20024;-88
2022/11/21 01:18:41;;;;;;;24.63;15.98;;;3.00;99.90;;;;;;5076081;28;20022;-87
2022/11/21 01:21:21;;;;;;;23.30;15.30;;;3.00;99.90;;;;;;5074550;28;20059;-88
2022/11/21 01:23:47;;;;;;;24.30;14.48;;;3.00;99.90;;;;;;5068727;28;20012;-88
2022/11/21 01:26:15;;;;;;;21.70;13.88;;;3.10;99.90;;;;;;5071827;28;20624;-88
2022/11/21 01:28:41;;;;;;;23.58;13.68;;;3.10;99.90;;;;;;5068652;28;20119;-87
2022/11/21 01:31:13;;;;;;;22.88;14.77;;;3.10;99.90;;;;;;5077616;28;20054;-88
2022/11/21 01:33:38;;;;;;;23.90;14.05;;;3.10;99.90;;;;;;5077374;28;20458;-89
2022/11/21 01:36:08;;;;;;;23.77;14.15;;;3.10;99.90;;;;;;5076296;28;20023;-89
2022/11/21 01:38:34;;;;;;;25.45;16.15;;;3.10;99.90;;;;;;5069424;28;20486;-88
2022/11/21 01:41:00;;;;;;;22.10;13.98;;;3.10;99.90;;;;;;5077382;28;20035;-88
2022/11/21 01:43:25;;;;;;;23.42;14.25;;;3.10;99.90;;;;;;5076939;28;20157;-89
2022/11/21 01:46:09;;;;;;;22.13;13.75;;;3.10;99.90;;;;;;5076405;28;20028;-88
2022/11/21 01:49:33;;;;;;;21.42;13.23;;;3.10;99.90;;;;;;5071558;28;20033;-89
2022/11/21 01:52:05;;;;;;;21.40;13.13;;;3.10;99.90;;;;;;5015523;28;20030;-88
2022/11/21 01:54:41;;;;;;;21.77;13.88;;;3.10;99.90;;;;;;5020633;28;20048;-89
2022/11/21 01:57:09;;;;;;;22.77;14.02;;;3.10;99.90;;;;;;5057730;28;20028;-87
2022/11/21 01:59:41;;;;;;;22.77;13.23;;;3.10;99.90;;;;;;5076991;28;20024;-89
2022/11/21 02:02:08;;;;;;;21.70;12.75;;;3.10;99.90;;;;;;5077205;28;20119;-88
2022/11/21 02:04:35;;;;;;;20.08;12.63;;;3.10;99.90;;;;;;5076670;28;20028;-90
2022/11/21 02:07:03;;;;;;;24.85;15.20;;;3.10;99.90;;;;;;5077196;28;20024;-90
2022/11/21 02:09:32;;;;;;;23.85;14.52;;;3.10;99.90;;;;;;5077496;28;20073;-88
2022/11/21 02:12:03;;;;;;;21.67;13.32;;;3.10;99.90;;;;;;5076437;28;20112;-88
2022/11/21 02:14:30;;;;;;;23.70;13.95;;;3.10;99.90;;;;;;5076773;28;20024;-88
2022/11/21 02:16:59;;;;;;;23.60;13.75;;;3.10;99.90;;;;;;5076377;28;20394;-89
2022/11/21 02:19:45;;;;;;;19.65;12.07;;;3.10;99.90;;;;;;5076455;28;20020;-89
2022/11/21 02:22:23;;;;;;;23.88;13.68;;;3.10;99.90;;;;;;5075987;28;20386;-88
2022/11/21 02:25:03;;;;;;;20.25;12.45;;;3.10;99.90;;;;;;5090269;28;20050;-87
2022/11/21 02:27:29;;;;;;;20.60;12.63;;;3.10;99.90;;;;;;5081798;28;20032;-87
2022/11/21 02:29:55;;;;;;;20.38;11.90;;;3.10;99.90;;;;;;5075351;28;20511;-87
2022/11/21 02:32:33;;;;;;;22.17;13.40;;;3.10;99.90;;;;;;5074196;28;20051;-88
2022/11/21 02:34:59;;;;;;;21.67;12.57;;;3.10;99.90;;;;;;5075939;28;20028;-89
2022/11/21 02:37:24;;;;;;;20.75;12.60;;;3.10;99.90;;;;;;5077806;28;20111;-88
2022/11/21 02:39:50;;;;;;;22.42;12.65;;;3.10;99.90;;;;;;5086661;28;20028;-88
2022/11/21 02:42:36;;;;;;;21.38;12.75;;;3.10;99.90;;;;;;5088586;28;20024;-87
2022/11/21 02:45:17;;;;;;;20.70;12.15;;;3.10;99.90;;;;;;5075223;28;20481;-89
2022/11/21 02:47:44;;;;;;;22.45;13.35;;;3.10;99.90;;;;;;5088339;28;20047;-89
2022/11/21 02:50:18;;;;;;;25.33;14.32;;;3.10;99.90;;;;;;5068754;28;20020;-89
2022/11/21 02:52:44;;;;;;;24.25;13.60;;;3.10;99.90;;;;;;5084812;28;20107;-90
2022/11/21 02:55:12;;;;;;;24.60;13.60;;;3.10;99.90;;;;;;5099591;28;20044;-88
2022/11/21 02:57:38;;;;;;;25.40;14.82;;;3.10;99.90;;;;;;5085787;28;20016;-88
2022/11/21 03:00:06;;;;;;;24.92;14.30;;;3.10;99.90;;;;;;5088991;28;20028;-88
2022/11/21 03:02:32;;;;;;;27.75;15.05;;;3.10;99.90;;;;;;5067450;28;20038;-90
2022/11/21 03:04:58;;;;;;;26.13;15.00;;;3.00;99.90;;;;;;5072910;28;20111;-90
2022/11/21 03:07:23;;;;;;;26.70;14.35;;;3.00;99.90;;;;;;5088269;28;20573;-90
2022/11/21 03:09:49;;;;;;;29.15;14.95;;;3.00;99.90;;;;;;5074752;28;20016;-89
2022/11/21 03:12:14;;;;;;;24.90;13.50;;;2.90;99.90;;;;;;5074353;28;20020;-88
2022/11/21 03:14:40;;;;;;;24.65;14.00;;;2.90;99.90;;;;;;5058806;28;20024;-87
2022/11/21 03:17:06;;;;;;;23.77;13.15;;;3.00;99.90;;;;;;5093389;28;20070;-90
2022/11/21 03:19:32;;;;;;;25.73;14.00;;;2.90;99.90;;;;;;5063690;28;20020;-89
2022/11/21 03:21:57;;;;;;;22.35;13.23;;;3.00;99.90;;;;;;5075237;28;20012;-89
2022/11/21 03:24:23;;;;;;;23.88;13.57;;;3.00;99.90;;;;;;5075960;28;20572;-89
2022/11/21 03:26:49;;;;;;;21.75;13.57;;;3.00;99.90;;;;;;5065464;28;20024;-88
2022/11/21 03:29:14;;;;;;;25.23;14.50;;;3.00;99.90;;;;;;5072484;28;20041;-87
2022/11/21 03:31:40;;;;;;;26.63;15.43;;;2.90;99.90;;;;;;5075502;28;20034;-89
2022/11/21 03:34:06;;;;;;;25.83;14.15;;;2.90;99.90;;;;;;5079591;28;20015;-89
2022/11/21 03:36:31;;;;;;;29.70;16.42;;;2.90;99.90;;;;;;5084369;28;20077;-89
2022/11/21 03:38:57;;;;;;;29.20;16.05;;;2.90;99.90;;;;;;5091795;28;20462;-89
2022/11/21 03:41:30;;;;;;;38.60;19.08;;;2.90;99.90;;;;;;5086376;28;20106;-90
2022/11/21 03:44:01;;;;;;;32.50;18.67;;;2.90;99.90;;;;;;5077188;28;20016;-89
2022/11/21 03:46:28;;;;;;;37.50;20.83;;;2.90;99.90;;;;;;5075143;28;20329;-89
2022/11/21 03:48:54;;;;;;;32.42;17.85;;;2.80;99.90;;;;;;5075720;28;20016;-89
2022/11/21 03:51:20;;;;;;;36.40;19.40;;;2.80;99.90;;;;;;5083209;28;20066;-89
2022/11/21 03:53:46;;;;;;;33.80;17.52;;;2.80;99.90;;;;;;5055701;28;20031;-89
2022/11/21 03:56:11;;;;;;;32.22;17.33;;;2.80;99.90;;;;;;5074978;28;20020;-90
2022/11/21 03:58:37;;;;;;;29.10;15.80;;;2.80;99.90;;;;;;5075764;28;20027;-89
2022/11/21 04:01:04;;;;;;;27.40;15.10;;;2.80;99.90;;;;;;5075341;28;20020;-90
2022/11/21 04:03:29;;;;;;;31.25;16.92;;;2.80;99.90;;;;;;5074497;28;20420;-90
2022/11/21 04:05:55;;;;;;;26.95;14.00;;;2.80;99.90;;;;;;5075181;28;20062;-89
2022/11/21 04:08:21;;;;;;;25.73;14.27;;;2.80;99.90;;;;;;5075678;28;20074;-89
2022/11/21 04:10:47;;;;;;;23.95;12.65;;;2.80;99.90;;;;;;5069445;28;20100;-88
2022/11/21 04:13:13;;;;;;;25.35;13.68;;;2.90;99.90;;;;;;5066648;28;20017;-88
2022/11/21 04:15:42;;;;;;;30.13;15.70;;;2.90;99.90;;;;;;5087938;28;20542;-89
2022/11/21 04:18:08;;;;;;;26.20;14.00;;;2.90;99.90;;;;;;5075315;28;20028;-89
2022/11/21 04:20:34;;;;;;;25.02;13.73;;;2.90;99.90;;;;;;5075262;28;20046;-89
2022/11/21 04:22:59;;;;;;;28.23;15.48;;;2.90;99.90;;;;;;5075074;28;20544;-89
2022/11/21 04:25:25;;;;;;;27.05;15.15;;;2.80;99.90;;;;;;5074637;28;20021;-89
2022/11/21 04:27:54;;;;;;;29.65;15.48;;;2.80;99.90;;;;;;5092880;28;20611;-88
2022/11/21 04:30:20;;;;;;;26.80;14.85;;;2.80;99.90;;;;;;5074658;28;20093;-88
2022/11/21 04:32:46;;;;;;;23.73;13.10;;;2.80;99.90;;;;;;5074935;28;20028;-89
2022/11/21 04:35:12;;;;;;;26.05;13.68;;;2.80;99.90;;;;;;5075301;28;20025;-87
2022/11/21 04:37:38;;;;;;;25.77;13.30;;;2.80;99.90;;;;;;5074534;28;20091;-88
2022/11/21 04:40:04;;;;;;;26.42;14.70;;;2.80;99.90;;;;;;5075033;28;20084;-89
2022/11/21 04:42:30;;;;;;;32.83;17.95;;;2.80;99.90;;;;;;5074224;28;20097;-89
2022/11/21 04:44:55;;;;;;;27.35;16.17;;;2.90;99.90;;;;;;5073995;28;20435;-88
2022/11/21 04:47:21;;;;;;;36.20;19.85;;;2.80;99.90;;;;;;5073905;28;20055;-88
2022/11/21 04:49:46;;;;;;;29.90;17.27;;;2.80;99.90;;;;;;5073985;28;20046;-89
2022/11/21 04:52:12;;;;;;;35.55;19.75;;;2.80;99.90;;;;;;5062660;28;20283;-88
2022/11/21 04:54:38;;;;;;;35.42;17.88;;;2.70;99.90;;;;;;5086038;28;20091;-88
2022/11/21 04:57:03;;;;;;;30.52;18.50;;;2.70;99.90;;;;;;5077934;28;20035;-88
2022/11/21 04:59:29;;;;;;;30.08;16.63;;;2.70;99.90;;;;;;5082994;28;20022;-88
2022/11/21 05:01:54;;;;;;;31.20;15.75;;;2.70;99.90;;;;;;5097886;28;20080;-89
2022/11/21 05:04:20;;;;;;;25.77;15.13;;;2.70;99.90;;;;;;5078686;28;20012;-88
2022/11/21 05:06:45;;;;;;;29.40;15.82;;;2.70;99.90;;;;;;5077871;28;20027;-89
2022/11/21 05:09:11;;;;;;;28.27;15.60;;;2.70;99.90;;;;;;5077720;28;20028;-89
2022/11/21 05:14:21;;;;;;;39.22;18.52;;;2.70;99.90;;;;;;5095736;28;20130;-87
2022/11/21 05:16:46;;;;;;;31.20;16.90;;;2.70;99.90;;;;;;5064427;28;20494;-90
2022/11/21 05:19:12;;;;;;;29.35;16.30;;;2.70;99.90;;;;;;5072528;28;20389;-88
2022/11/21 05:21:37;;;;;;;30.60;15.98;;;2.70;99.90;;;;;;5071462;28;20027;-87
2022/11/21 05:24:03;;;;;;;29.38;15.35;;;2.70;99.90;;;;;;5078265;28;20115;-88
2022/11/21 05:26:29;;;;;;;28.67;14.90;;;2.80;99.90;;;;;;5077218;28;20028;-87
2022/11/21 05:28:54;;;;;;;26.63;14.20;;;2.80;99.90;;;;;;5077392;28;20032;-87
2022/11/21 05:31:20;;;;;;;25.25;12.93;;;2.80;99.90;;;;;;5077543;28;20023;-88
2022/11/21 05:33:45;;;;;;;29.80;14.50;;;2.90;99.90;;;;;;5089604;28;20062;-87
2022/11/21 05:36:11;;;;;;;26.65;14.18;;;2.90;99.90;;;;;;5076909;28;20112;-88
2022/11/21 05:38:37;;;;;;;32.00;15.68;;;2.80;99.90;;;;;;5075765;28;20016;-89
2022/11/21 05:41:02;;;;;;;33.97;15.20;;;2.90;99.90;;;;;;5075800;28;20111;-89
2022/11/21 05:43:46;;;;;;;36.13;17.73;;;2.90;99.90;;;;;;5075228;28;20027;-88
2022/11/21 05:46:19;;;;;;;40.55;19.55;;;2.80;99.90;;;;;;5075448;28;20141;-89
2022/11/21 05:48:49;;;;;;;42.47;18.75;;;2.80;99.90;;;;;;5075662;28;20036;-89
2022/11/21 05:51:29;;;;;;;34.25;16.13;;;2.80;99.90;;;;;;5076771;28;20030;-88
2022/11/21 05:53:55;;;;;;;35.97;17.52;;;2.80;99.90;;;;;;5076822;28;20036;-90
2022/11/21 05:56:20;;;;;;;35.20;17.80;;;2.90;99.90;;;;;;5074927;28;20088;-87
2022/11/21 05:58:46;;;;;;;33.13;16.00;;;2.90;99.90;;;;;;5075762;28;20500;-88
2022/11/21 06:01:14;;;;;;;31.10;14.77;;;2.90;99.90;;;;;;5075687;28;20034;-88
2022/11/21 06:04:25;;;;;;;;;;;;;;;;;;;;;
2022/11/21 06:10:43;;;;;;;34.53;16.20;;;2.90;99.90;;;;;;5090756;22;20056;-91
2022/11/21 06:13:21;;;;;;;31.05;15.57;;;2.90;99.90;;;;;;5074911;28;20021;-90
2022/11/21 06:15:51;;;;;;;32.63;15.18;;;2.90;99.90;;;;;;5038311;28;20025;-89
2022/11/21 06:18:17;;;;;;;29.70;14.40;;;2.90;99.90;;;;;;5049938;28;20039;-89
2022/11/21 06:20:46;;;;;;;30.63;14.77;;;2.90;99.90;;;;;;5056718;28;20048;-90
2022/11/21 06:23:11;;;;;;;28.17;13.75;;;2.90;99.90;;;;;;5056444;28;20033;-89
2022/11/21 06:25:38;;;;;;;33.67;16.00;;;3.00;99.90;;;;;;5057107;28;20383;-90
2022/11/21 06:28:04;;;;;;;38.22;15.93;;;2.90;99.90;;;;;;5057273;28;20076;-90
2022/11/21 06:30:35;;;;;;;32.50;15.27;;;2.90;99.90;;;;;;5056419;28;20048;-89
2022/11/21 06:33:08;;;;;;;30.17;14.63;;;2.90;99.90;;;;;;5056243;28;20024;-89
2022/11/21 06:35:41;;;;;;;31.67;14.43;;;2.90;99.90;;;;;;5046295;28;20104;-89
2022/11/21 06:38:07;;;;;;;;;;;3.00;99.90;;;;;;5040821;28;20035;-89
2022/11/21 06:40:36;;;;;;;37.10;17.98;;;2.90;99.90;;;;;;5055802;28;19953;-89
2022/11/21 06:43:14;;;;;;;42.30;19.10;;;2.90;99.90;;;;;;5050913;28;20043;-88
2022/11/21 06:45:43;;;;;;;31.65;15.07;;;2.90;99.90;;;;;;5063733;28;20063;-88
2022/11/21 06:48:09;;;;;;;32.50;15.77;;;2.90;99.90;;;;;;5053239;28;20117;-88
2022/11/21 06:50:37;;;;;;;41.50;19.35;;;2.90;99.90;;;;;;5062555;28;20114;-89
2022/11/21 06:53:03;;;;;;;44.03;19.60;;;2.90;99.90;;;;;;5053961;28;20028;-91
2022/11/21 06:55:30;;;;;;;35.33;17.42;;;2.90;99.90;;;;;;5074120;28;20025;-88
2022/11/21 06:58:20;;;;;;;;;;;;;;;;;;;;;
2022/11/21 07:00:48;;;;;;;43.65;18.67;;;2.90;99.90;;;;;;5067520;28;20032;-89
2022/11/21 07:03:17;;;;;;;46.85;21.05;;;2.90;99.90;;;;;;5062507;28;20035;-88
2022/11/21 07:05:51;;;;;;;39.28;18.77;;;3.00;99.90;;;;;;5061603;28;20064;-88
2022/11/21 07:08:19;;;;;;;40.85;18.40;;;2.90;99.90;;;;;;5055627;28;20121;-88
2022/11/21 07:10:52;;;;;;;35.63;16.55;;;2.90;99.90;;;;;;5056027;28;20055;-88
2022/11/21 07:13:21;;;;;;;36.95;15.98;;;3.00;99.90;;;;;;5081364;28;20027;-88
2022/11/21 07:16:06;;;;;;;46.17;21.90;;;3.00;99.90;;;;;;5047321;28;20059;-87
2022/11/21 07:18:44;;;;;;;56.28;23.90;;;3.00;99.90;;;;;;5066055;28;20119;-87
2022/11/21 07:21:12;;;;;;;51.83;24.92;;;3.00;99.90;;;;;;5062037;28;20020;-89
2022/11/21 07:23:40;;;;;;;57.55;25.83;;;2.90;99.90;;;;;;5055239;28;20059;-88
2022/11/21 07:26:14;;;;;;;53.70;25.77;;;2.90;99.90;;;;;;5079038;28;20030;-90
2022/11/21 07:28:43;;;;;;;45.67;21.83;;;2.90;99.90;;;;;;5042513;28;20044;-89
2022/11/21 07:31:12;;;;;;;39.97;21.15;;;2.90;99.90;;;;;;5055214;28;20033;-89
2022/11/21 07:33:55;;;;;;;42.95;21.20;;;2.90;99.90;;;;;;5072624;28;20024;-89
2022/11/21 07:36:34;;;;;;;;;;;;;;;;;;;;;
2022/11/21 07:39:05;;;;;;;35.45;18.00;;;2.90;99.90;;;;;;5060707;28;20033;-90
2022/11/21 07:41:33;;;;;;;30.90;15.90;;;3.00;99.90;;;;;;5056512;28;20028;-88
2022/11/21 07:43:59;;;;;;;28.40;15.07;;;3.00;99.90;;;;;;5072669;28;20078;-88
2022/11/21 07:46:34;;;;;;;27.67;14.45;;;3.10;99.90;;;;;;5055275;28;20032;-88
2022/11/21 07:49:06;;;;;;;28.98;13.73;;;3.10;99.90;;;;;;5041327;28;20067;-89
2022/11/21 07:51:41;;;;;;;33.72;15.30;;;3.20;99.90;;;;;;5072992;28;20028;-89
2022/11/21 07:54:07;;;;;;;36.30;17.23;;;3.20;99.90;;;;;;5054414;28;20020;-88
2022/11/21 07:56:33;;;;;;;35.85;17.00;;;3.20;99.90;;;;;;5054536;28;20028;-89
2022/11/21 07:59:12;;;;;;;36.97;18.73;;;3.10;99.90;;;;;;5038158;28;20035;-89
2022/11/21 08:01:43;;;;;;;35.45;17.55;;;3.10;99.90;;;;;;5054294;28;20031;-89
2022/11/21 08:04:09;;;;;;;35.92;18.67;;;3.20;99.90;;;;;;5055023;28;20021;-88
2022/11/21 08:06:43;;;;;;;31.35;17.27;;;3.20;99.90;;;;;;5072845;28;20075;-88
2022/11/21 08:09:12;;;;;;;30.90;16.58;;;3.20;99.90;;;;;;5054795;28;20053;-88
2022/11/21 08:11:48;;;;;;;28.10;14.73;;;3.30;99.90;;;;;;5068116;28;20028;-90
2022/11/21 08:14:17;;;;;;;27.98;14.85;;;3.30;99.90;;;;;;5061286;28;20040;-88
2022/11/21 08:17:03;;;;;;;26.30;13.85;;;3.30;99.90;;;;;;5053800;28;20025;-89
2022/11/21 08:19:32;;;;;;;29.58;15.25;;;3.30;99.90;;;;;;5072187;28;20021;-88
2022/11/21 08:22:03;;;;;;;27.42;13.35;;;3.40;99.90;;;;;;5060602;28;20025;-89
2022/11/21 08:27:47;;;;;;;28.77;14.43;;;3.40;99.90;;;;;;5065185;28;20086;-88
2022/11/21 08:30:22;;;;;;;28.63;13.63;;;3.40;99.90;;;;;;5051422;28;20032;-89
2022/11/21 08:33:02;;;;;;;33.15;17.42;;;3.40;99.90;;;;;;5060002;28;20035;-92
2022/11/21 08:35:28;;;;;;;30.42;16.02;;;3.40;99.90;;;;;;5070837;28;20021;-89
2022/11/21 08:37:58;;;;;;;28.75;14.85;;;3.40;99.90;;;;;;5054553;28;20039;-88
2022/11/21 08:40:30;;;;;;;30.75;15.45;;;3.40;99.90;;;;;;5076680;28;20016;-89
2022/11/21 08:43:04;;;;;;;24.35;12.18;;;3.50;99.90;;;;;;5078042;28;20096;-89
2022/11/21 08:45:39;;;;;;;24.42;12.88;;;3.50;99.90;;;;;;5060609;28;20028;-89
2022/11/21 08:48:12;;;;;;;31.25;14.70;;;3.60;99.90;;;;;;5049413;28;20032;-90
2022/11/21 08:50:48;;;;;;;29.50;14.57;;;3.50;99.90;;;;;;5058705;28;20020;-89
2022/11/21 08:53:17;;;;;;;27.30;13.77;;;3.50;99.90;;;;;;5074747;28;20090;-89
2022/11/21 08:55:42;;;;;;;25.02;13.23;;;3.60;99.90;;;;;;5044299;28;20039;-91
2022/11/21 08:58:13;;;;;;;23.45;12.60;;;3.60;99.90;;;;;;5062870;28;20461;-90
2022/11/21 09:00:49;;;;;;;29.20;13.90;;;3.60;99.90;;;;;;5055020;28;20049;-89
2022/11/21 09:03:14;;;;;;;24.73;12.95;;;3.60;99.90;;;;;;5058404;28;20037;-89
2022/11/21 09:05:47;;;;;;;25.42;13.32;;;3.70;99.90;;;;;;5064333;28;20016;-89
2022/11/21 09:08:36;;;;;;;29.50;13.55;;;3.80;99.90;;;;;;5066604;28;20051;-90
2022/11/21 09:11:06;;;;;;;27.95;12.45;;;3.80;99.90;;;;;;5053605;28;20039;-89
2022/11/21 09:13:35;;;;;;;23.95;12.25;;;3.80;99.90;;;;;;5060312;28;20055;-88
2022/11/21 09:18:46;;;;;;;23.50;11.55;;;3.90;99.90;;;;;;5075210;28;20043;-89
2022/11/21 09:21:25;;;;;;;26.17;13.48;;;4.00;99.90;;;;;;5057664;28;20452;-88
2022/11/21 09:24:08;;;;;;;;;;;;;;;;;;;;;
2022/11/21 09:26:37;;;;;;;28.25;13.15;;;4.00;99.90;;;;;;5057648;28;20032;-89
2022/11/21 09:29:23;;;;;;;26.25;13.07;;;4.00;99.90;;;;;;5075979;28;20035;-89
2022/11/21 09:31:51;;;;;;;32.40;15.35;;;4.10;99.90;;;;;;5057314;28;20048;-89
2022/11/21 09:34:18;;;;;;;33.42;13.18;;;4.10;99.90;;;;;;5057431;28;20029;-89
2022/11/21 09:36:48;;;;;;;25.00;12.27;;;4.10;99.90;;;;;;5057668;28;20031;-89
2022/11/21 09:39:26;;;;;;;32.17;13.73;;;4.20;99.90;;;;;;5057626;28;20029;-90
2022/11/21 09:42:31;;;;;;;32.28;14.27;;;4.40;99.90;;;;;;5047876;28;20082;-90
2022/11/21 09:45:37;;;;;;;;;;;;;;;;;;;;;
2022/11/21 09:48:12;;;;;;;27.38;13.40;;;4.50;99.90;;;;;;5031763;28;20045;-89
2022/11/21 09:50:44;;;;;;;30.63;13.55;;;4.50;99.90;;;;;;5062489;28;20035;-90
2022/11/21 09:53:38;;;;;;;32.43;14.47;;;4.60;99.90;;;;;;5063197;28;20441;-89
2022/11/21 09:56:09;;;;;;;31.85;13.85;;;4.60;99.90;;;;;;5070376;28;20083;-89
2022/11/21 09:58:50;;;;;;;30.77;13.63;;;4.60;99.90;;;;;;5049766;28;20411;-89
2022/11/21 10:01:21;;;;;;;32.90;13.55;;;4.60;99.90;;;;;;5045868;28;20062;-89
2022/11/21 10:03:53;;;;;;;27.15;13.40;;;4.60;99.90;;;;;;5083804;28;20099;-89
2022/11/21 10:06:27;;;;;;;27.67;13.10;;;4.60;99.90;;;;;;5064469;28;20052;-88
2022/11/21 10:09:30;;;;;;;28.05;12.60;;;4.70;99.90;;;;;;5077646;28;20450;-89
2022/11/21 10:12:36;;;;;;;33.63;15.57;;;4.70;99.90;;;;;;5063756;28;20362;-89
2022/11/21 10:15:02;;;;;;;39.55;16.33;;;4.70;99.90;;;;;;5076370;28;20032;-88
2022/11/21 10:17:54;;;;;;;34.20;16.73;;;4.70;99.90;;;;;;5048846;28;20074;-89
2022/11/21 10:20:38;;;;;;;28.33;15.43;;;4.70;99.90;;;;;;5067195;28;20017;-89
2022/11/21 10:23:26;;;;;;;30.75;14.52;;;4.70;99.90;;;;;;5068988;28;20309;-88
2022/11/21 10:26:22;;;;;;;30.13;15.63;;;4.80;99.90;;;;;;5066218;28;20020;-89
2022/11/21 10:29:29;;;;;;;39.75;20.45;;;4.90;99.90;;;;;;5043161;28;20032;-89
2022/11/21 10:32:01;;;;;;;38.38;18.08;;;4.80;99.90;;;;;;5081691;28;20109;-89
2022/11/21 10:34:37;;;;;;;36.83;17.80;;;4.80;99.90;;;;;;5074805;28;20028;-89
2022/11/21 10:37:17;;;;;;;38.30;18.98;;;4.90;99.90;;;;;;5061379;28;20023;-88
2022/11/21 10:39:46;;;;;;;46.72;22.30;;;4.90;99.90;;;;;;5066558;28;20096;-88
2022/11/21 10:42:22;;;;;;;42.00;20.08;;;4.90;99.90;;;;;;5059292;28;20028;-87
2022/11/21 10:45:23;;;;;;;35.53;18.38;;;4.90;99.90;;;;;;5053217;28;20032;-88
2022/11/21 10:47:51;;;;;;;35.35;17.48;;;4.90;99.90;;;;;;5046519;28;20031;-88
2022/11/21 10:50:42;;;;;;;35.13;16.83;;;5.00;99.90;;;;;;5043881;28;20032;-89
2022/11/21 10:56:16;;;;;;;29.58;13.75;;;5.10;99.90;;;;;;5061985;28;20451;-91
2022/11/21 10:59:13;;;;;;;30.80;15.02;;;5.10;99.90;;;;;;5045543;28;20028;-89
2022/11/21 11:01:53;;;;;;;27.42;14.05;;;5.20;99.90;;;;;;5039658;28;20110;-90
2022/11/21 11:04:35;;;;;;;30.27;14.38;;;5.30;99.90;;;;;;5064826;28;20036;-88
2022/11/21 11:07:30;;;;;;;29.70;14.52;;;5.30;99.90;;;;;;5068098;28;20487;-89
2022/11/21 11:10:13;;;;;;;26.42;12.93;;;5.40;99.90;;;;;;5055805;28;20056;-91
2022/11/21 11:15:35;;;;;;;28.60;13.95;;;5.50;99.90;;;;;;5065339;28;20043;-90
2022/11/21 11:18:05;;;;;;;25.35;12.02;;;5.60;99.90;;;;;;5055985;28;20019;-90
2022/11/21 11:20:44;;;;;;;27.17;13.50;;;5.70;99.90;;;;;;5055287;28;20017;-91
2022/11/21 11:23:32;;;;;;;27.38;12.98;;;5.80;99.90;;;;;;5044801;28;20056;-89
2022/11/21 11:26:02;;;;;;;30.98;13.82;;;5.90;99.90;;;;;;5045106;28;20420;-87
2022/11/21 11:28:44;;;;;;;27.05;13.65;;;6.00;99.90;;;;;;5035263;28;20099;-90
2022/11/21 11:31:20;;;;;;;26.85;13.43;;;6.10;99.90;;;;;;5043772;28;20024;-90
2022/11/21 11:33:46;;;;;;;24.92;11.88;;;6.10;99.90;;;;;;5051084;28;20082;-90
2022/11/21 11:36:30;;;;;;;25.85;12.77;;;6.10;99.90;;;;;;5041759;28;20426;-90
2022/11/21 11:39:04;;;;;;;25.63;13.45;;;6.20;99.90;;;;;;5050513;28;20078;-90
2022/11/21 11:47:55;;;;;;;26.00;12.45;;;6.40;99.90;;;;;;4992594;28;20082;-90
2022/11/21 11:50:32;;;;;;;22.52;11.93;;;6.50;99.90;;;;;;5041473;28;20025;-90
2022/11/21 11:53:46;;;;;;;23.48;11.90;;;6.60;99.90;;;;;;5045428;28;20029;-89
2022/11/21 11:56:54;;;;;;;21.10;11.88;;;6.70;99.90;;;;;;5059130;28;20024;-90
2022/11/21 11:59:54;;;;;;;27.88;13.52;;;6.80;99.90;;;;;;5022483;28;20104;-88
2022/11/21 12:02:52;;;;;;;26.15;13.65;;;6.80;99.90;;;;;;5045325;28;20036;-89
2022/11/21 12:05:28;;;;;;;23.30;13.23;;;6.80;99.90;;;;;;5060830;28;20032;-91
2022/11/21 12:08:20;;;;;;;21.88;11.98;;;6.90;99.90;;;;;;5066036;28;20062;-90
2022/11/21 12:13:59;;;;;;;19.90;11.50;;;6.90;99.90;;;;;;4992649;28;20437;-93
2022/11/21 12:16:48;;;;;;;23.63;12.57;;;7.00;99.90;;;;;;4988213;28;20047;-90
2022/11/21 12:22:54;;;;;;;;;;;;;;;;;;;;;
2022/11/21 12:25:29;;;;;;;22.85;13.98;;;7.20;99.90;;;;;;4978436;28;20046;-90
2022/11/21 12:27:56;;;;;;;23.10;13.32;;;7.30;99.90;;;;;;4993724;28;20037;-87
2022/11/21 12:31:26;;;;;;;20.23;13.23;;;7.50;99.90;;;;;;5010252;28;20065;-89
2022/11/21 12:34:23;;;;;;;18.05;12.18;;;7.80;99.90;;;;;;4981486;28;20046;-89
2022/11/21 12:37:18;;;;;;;21.33;13.73;;;8.10;99.90;;;;;;4973541;28;20105;-89
2022/11/21 12:40:24;;;;;;;;;;;;;;;;;;;;;
2022/11/21 12:43:39;;;;;;;22.45;13.90;;;8.50;99.90;;;;;;5076959;28;20034;-90
2022/11/21 12:46:44;;;;;;;24.00;17.05;;;8.50;99.90;;;;;;5067889;28;20033;-87
2022/11/21 12:56:02;;;;;;;20.92;13.82;;;7.90;99.90;;;;;;5068851;28;20035;-91
2022/11/21 12:58:45;;;;;;;;;;;;;;;;;;;;;
2022/11/21 13:01:29;;;;;;;22.90;15.35;;;7.80;99.90;;;;;;5071066;28;20035;-88
2022/11/21 13:04:54;;;;;;;;;;;;;;;;;;;;;
2022/11/21 13:07:33;;;;;;;17.55;13.50;;;7.60;99.90;;;;;;4990680;28;20046;-88
2022/11/21 13:10:22;;;;;;;20.90;13.65;;;7.60;99.90;;;;;;4965615;28;20046;-87
2022/11/21 13:27:53;;;;;;;13.60;11.30;;;7.90;99.90;;;;;;4937253;28;20439;-89
2022/11/21 13:31:04;;;;;;;16.48;12.80;;;8.00;99.90;;;;;;4924633;28;20030;-88
2022/11/21 13:37:58;;;;;;;;;;;;;;;;;;;;;
2022/11/21 13:48:41;;;;;;;17.17;11.50;;;7.80;99.90;;;;;;4929109;28;20083;-89
2022/11/21 13:52:13;;;;;;;;;;;;;;;;;;;;;
2022/11/21 13:55:18;;;;;;;15.43;11.85;;;7.70;99.90;;;;;;4973876;28;20054;-87
2022/11/21 13:58:19;;;;;;;;;;;;;;;;;;;;;
2022/11/21 14:01:17;;;;;;;;;;;;;;;;;;;;;
2022/11/21 14:04:17;;;;;;;19.27;11.45;;;7.70;99.90;;;;;;5034972;28;20027;-89
2022/11/21 14:06:49;;;;;;;15.55;10.32;;;7.70;99.90;;;;;;5042602;28;20052;-88
2022/11/21 14:10:04;;;;;;;12.68;9.40;;;7.60;99.90;;;;;;5036751;28;20050;-87
2022/11/21 14:12:44;;;;;;;12.73;7.93;;;7.60;99.90;;;;;;5042996;28;20019;-90
2022/11/21 14:15:39;;;;;;;10.43;7.95;;;7.60;99.90;;;;;;5048873;28;20013;-89
2022/11/21 14:18:33;;;;;;;14.05;9.73;;;7.50;99.90;;;;;;5016332;28;20140;-87
2022/11/21 14:21:41;;;;;;;;;;;;;;;;;;;;;
2022/11/21 14:25:05;;;;;;;;;;;;;;;;;;;;;
2022/11/21 14:49:22;;;;;;;8.48;6.38;;;7.00;99.90;;;;;;4973486;28;20127;-91
2022/11/21 14:52:30;;;;;;;9.60;6.57;;;6.90;99.90;;;;;;4973202;28;20114;-88
2022/11/21 14:58:55;;;;;;;11.82;7.72;;;6.80;99.90;;;;;;4934615;29;20479;-89
2022/11/21 15:08:56;;;;;;;14.48;9.05;;;6.80;99.90;;;;;;4934296;29;20127;-89
2022/11/21 15:44:07;;;;;;;;;;;;;;;;;;;;;
2022/11/21 15:50:39;;;;;;;;;;;;;;;;;;;;;